sensor_id;sensor_type;location;lat;lon;timestamp;temperature;humidity
15355;DHT22;7777;52.254;9.618;2024-03-29T00:00:53;8.80;99.90
15355;DHT22;7777;52.254;9.618;2024-03-29T00:03:18;8.70;99.90
15355;DHT22;7777;52.254;9.618;2024-03-29T00:05:44;8.70;99.90
15355;DHT22;7777;52.254;9.618;2024-03-29T00:08:10;8.70;99.90
15355;DHT22;7777;52.254;9.618;2024-03-29T00:10:36;8.70;99.90
15355;DHT22;7777;52.254;9.618;2024-03-29T00:13:02;8.70;99.90
15355;DHT22;7777;52.254;9.618;2024-03-29T00:15:28;8.70;99.90
15355;DHT22;7777;52.254;9.618;2024-03-29T00:17:54;8.70;99.90
15355;DHT22;7777;52.254;9.618;2024-03-29T00:20:19;8.70;99.90
15355;DHT22;7777;52.254;9.618;2024-03-29T00:22:46;8.70;99.90
15355;DHT22;7777;52.254;9.618;2024-03-29T00:25:12;8.70;99.90
15355;DHT22;7777;52.254;9.618;2024-03-29T00:27:38;8.70;99.90
15355;DHT22;7777;52.254;9.618;2024-03-29T00:30:04;8.70;99.90
15355;DHT22;7777;52.254;9.618;2024-03-29T00:32:30;8.70;99.90
15355;DHT22;7777;52.254;9.618;2024-03-29T00:34:56;8.70;99.90
15355;DHT22;7777;52.254;9.618;2024-03-29T00:37:23;8.70;99.90
15355;DHT22;7777;52.254;9.618;2024-03-29T00:39:49;8.70;99.90
15355;DHT22;7777;52.254;9.618;2024-03-29T00:42:15;8.70;99.90
15355;DHT22;7777;52.254;9.618;2024-03-29T00:44:42;8.70;99.90
15355;DHT22;7777;52.254;9.618;2024-03-29T00:47:09;8.70;99.90
15355;DHT22;7777;52.254;9.618;2024-03-29T00:49:35;8.70;99.90
15355;DHT22;7777;52.254;9.618;2024-03-29T00:52:02;8.70;99.90
15355;DHT22;7777;52.254;9.618;2024-03-29T00:54:30;8.60;99.90
15355;DHT22;7777;52.254;9.618;2024-03-29T00:56:56;8.60;99.90
15355;DHT22;7777;52.254;9.618;2024-03-29T00:59:22;8.60;99.90
15355;DHT22;7777;52.254;9.618;2024-03-29T01:01:48;8.60;99.90
15355;DHT22;7777;52.254;9.618;2024-03-29T01:04:17;8.60;99.90
15355;DHT22;7777;52.254;9.618;2024-03-29T01:06:43;8.60;99.90
15355;DHT22;7777;52.254;9.618;2024-03-29T01:09:09;8.60;99.90
15355;DHT22;7777;52.254;9.618;2024-03-29T01:11:38;8.50;99.90
15355;DHT22;7777;52.254;9.618;2024-03-29T01:14:05;8.50;99.90
15355;DHT22;7777;52.254;9.618;2024-03-29T01:16:31;8.50;99.90
15355;DHT22;7777;52.254;9.618;2024-03-29T01:18:58;8.50;99.90
15355;DHT22;7777;52.254;9.618;2024-03-29T01:21:25;8.50;99.90
15355;DHT22;7777;52.254;9.618;2024-03-29T01:23:51;8.50;99.90
15355;DHT22;7777;52.254;9.618;2024-03-29T01:26:17;8.40;99.90
15355;DHT22;7777;52.254;9.618;2024-03-29T01:28:43;8.40;99.90
15355;DHT22;7777;52.254;9.618;2024-03-29T01:31:09;8.40;99.90
15355;DHT22;7777;52.254;9.618;2024-03-29T01:33:35;8.40;99.90
15355;DHT22;7777;52.254;9.618;2024-03-29T01:36:06;8.40;99.90
15355;DHT22;7777;52.254;9.618;2024-03-29T01:38:32;8.40;99.90
15355;DHT22;7777;52.254;9.618;2024-03-29T01:40:58;8.40;99.90
15355;DHT22;7777;52.254;9.618;2024-03-29T01:43:24;8.40;99.90
15355;DHT22;7777;52.254;9.618;2024-03-29T01:45:53;8.40;99.90
15355;DHT22;7777;52.254;9.618;2024-03-29T01:48:21;8.40;99.90
15355;DHT22;7777;52.254;9.618;2024-03-29T01:50:48;8.40;99.90
15355;DHT22;7777;52.254;9.618;2024-03-29T01:53:15;8.40;99.90
15355;DHT22;7777;52.254;9.618;2024-03-29T01:55:42;8.40;99.90
15355;DHT22;7777;52.254;9.618;2024-03-29T01:58:09;8.40;99.90
15355;DHT22;7777;52.254;9.618;2024-03-29T02:00:41;8.40;99.90
15355;DHT22;7777;52.254;9.618;2024-03-29T02:03:07;8.40;99.90
15355;DHT22;7777;52.254;9.618;2024-03-29T02:05:40;8.40;99.90
15355;DHT22;7777;52.254;9.618;2024-03-29T02:08:07;8.40;99.90
15355;DHT22;7777;52.254;9.618;2024-03-29T02:10:34;8.40;99.90
15355;DHT22;7777;52.254;9.618;2024-03-29T02:13:00;8.40;99.90
15355;DHT22;7777;52.254;9.618;2024-03-29T02:15:28;8.40;99.90
15355;DHT22;7777;52.254;9.618;2024-03-29T02:17:54;8.50;99.90
15355;DHT22;7777;52.254;9.618;2024-03-29T02:20:20;8.50;99.90
15355;DHT22;7777;52.254;9.618;2024-03-29T02:22:57;8.50;99.90
15355;DHT22;7777;52.254;9.618;2024-03-29T02:25:25;8.40;99.90
15355;DHT22;7777;52.254;9.618;2024-03-29T02:27:51;8.50;99.90
15355;DHT22;7777;52.254;9.618;2024-03-29T02:30:17;8.50;99.90
15355;DHT22;7777;52.254;9.618;2024-03-29T02:32:43;8.50;99.90
15355;DHT22;7777;52.254;9.618;2024-03-29T02:35:09;8.50;99.90
15355;DHT22;7777;52.254;9.618;2024-03-29T02:37:35;8.50;99.90
15355;DHT22;7777;52.254;9.618;2024-03-29T02:40:05;8.50;99.90
15355;DHT22;7777;52.254;9.618;2024-03-29T02:42:32;8.50;99.90
15355;DHT22;7777;52.254;9.618;2024-03-29T02:44:57;8.50;99.90
15355;DHT22;7777;52.254;9.618;2024-03-29T02:47:23;8.50;99.90
15355;DHT22;7777;52.254;9.618;2024-03-29T02:49:49;8.50;99.90
15355;DHT22;7777;52.254;9.618;2024-03-29T02:52:15;8.50;99.90
15355;DHT22;7777;52.254;9.618;2024-03-29T02:54:41;8.50;99.90
15355;DHT22;7777;52.254;9.618;2024-03-29T02:57:07;8.50;99.90
15355;DHT22;7777;52.254;9.618;2024-03-29T02:59:33;8.50;99.90
15355;DHT22;7777;52.254;9.618;2024-03-29T03:01:59;8.40;99.90
15355;DHT22;7777;52.254;9.618;2024-03-29T03:04:24;8.50;99.90
15355;DHT22;7777;52.254;9.618;2024-03-29T03:06:50;8.40;99.90
15355;DHT22;7777;52.254;9.618;2024-03-29T03:09:16;8.40;99.90
15355;DHT22;7777;52.254;9.618;2024-03-29T03:12:00;8.40;99.90
15355;DHT22;7777;52.254;9.618;2024-03-29T03:14:26;8.40;99.90
15355;DHT22;7777;52.254;9.618;2024-03-29T03:16:53;8.30;99.90
15355;DHT22;7777;52.254;9.618;2024-03-29T03:19:19;8.30;99.90
15355;DHT22;7777;52.254;9.618;2024-03-29T03:21:44;8.30;99.90
15355;DHT22;7777;52.254;9.618;2024-03-29T03:24:10;8.30;99.90
15355;DHT22;7777;52.254;9.618;2024-03-29T03:26:37;8.20;99.90
15355;DHT22;7777;52.254;9.618;2024-03-29T03:29:03;8.20;99.90
15355;DHT22;7777;52.254;9.618;2024-03-29T03:31:29;8.20;99.90
15355;DHT22;7777;52.254;9.618;2024-03-29T03:33:55;8.20;99.90
15355;DHT22;7777;52.254;9.618;2024-03-29T03:36:21;8.20;99.90
15355;DHT22;7777;52.254;9.618;2024-03-29T03:38:46;8.20;99.90
15355;DHT22;7777;52.254;9.618;2024-03-29T03:41:12;8.20;99.90
15355;DHT22;7777;52.254;9.618;2024-03-29T03:43:38;8.20;99.90
15355;DHT22;7777;52.254;9.618;2024-03-29T03:46:03;8.20;99.90
15355;DHT22;7777;52.254;9.618;2024-03-29T03:48:29;8.20;99.90
15355;DHT22;7777;52.254;9.618;2024-03-29T03:50:57;8.30;99.90
15355;DHT22;7777;52.254;9.618;2024-03-29T03:53:23;8.30;99.90
15355;DHT22;7777;52.254;9.618;2024-03-29T03:55:49;8.30;99.90
15355;DHT22;7777;52.254;9.618;2024-03-29T03:58:15;8.30;99.90
15355;DHT22;7777;52.254;9.618;2024-03-29T04:00:40;8.40;99.90
15355;DHT22;7777;52.254;9.618;2024-03-29T04:03:07;8.40;99.90
15355;DHT22;7777;52.254;9.618;2024-03-29T04:05:32;8.40;99.90
15355;DHT22;7777;52.254;9.618;2024-03-29T04:07:58;8.40;99.90
15355;DHT22;7777;52.254;9.618;2024-03-29T04:10:25;8.40;99.90
15355;DHT22;7777;52.254;9.618;2024-03-29T04:12:51;8.50;99.90
15355;DHT22;7777;52.254;9.618;2024-03-29T04:15:16;8.50;99.90
15355;DHT22;7777;52.254;9.618;2024-03-29T04:17:43;8.50;99.90
15355;DHT22;7777;52.254;9.618;2024-03-29T04:20:09;8.50;99.90
15355;DHT22;7777;52.254;9.618;2024-03-29T04:22:35;8.50;99.90
15355;DHT22;7777;52.254;9.618;2024-03-29T04:25:00;8.50;99.90
15355;DHT22;7777;52.254;9.618;2024-03-29T04:27:26;8.50;99.90
15355;DHT22;7777;52.254;9.618;2024-03-29T04:29:53;8.60;99.90
15355;DHT22;7777;52.254;9.618;2024-03-29T04:32:19;8.60;99.90
15355;DHT22;7777;52.254;9.618;2024-03-29T04:34:49;8.60;99.90
15355;DHT22;7777;52.254;9.618;2024-03-29T04:37:15;8.60;99.90
15355;DHT22;7777;52.254;9.618;2024-03-29T04:39:42;8.60;99.90
15355;DHT22;7777;52.254;9.618;2024-03-29T04:42:08;8.60;99.90
15355;DHT22;7777;52.254;9.618;2024-03-29T04:44:34;8.60;99.90
15355;DHT22;7777;52.254;9.618;2024-03-29T04:47:00;8.70;99.90
15355;DHT22;7777;52.254;9.618;2024-03-29T04:49:27;8.70;99.90
15355;DHT22;7777;52.254;9.618;2024-03-29T04:52:10;8.70;99.90
15355;DHT22;7777;52.254;9.618;2024-03-29T04:54:36;8.70;99.90
15355;DHT22;7777;52.254;9.618;2024-03-29T04:57:03;8.80;99.90
15355;DHT22;7777;52.254;9.618;2024-03-29T04:59:31;8.80;99.90
15355;DHT22;7777;52.254;9.618;2024-03-29T05:01:59;8.80;99.90
15355;DHT22;7777;52.254;9.618;2024-03-29T05:04:25;8.80;99.90
15355;DHT22;7777;52.254;9.618;2024-03-29T05:06:57;8.80;99.90
15355;DHT22;7777;52.254;9.618;2024-03-29T05:09:25;8.80;99.90
15355;DHT22;7777;52.254;9.618;2024-03-29T05:11:51;8.80;99.90
15355;DHT22;7777;52.254;9.618;2024-03-29T05:14:19;8.80;99.90
15355;DHT22;7777;52.254;9.618;2024-03-29T05:16:47;8.80;99.90
15355;DHT22;7777;52.254;9.618;2024-03-29T05:19:14;8.80;99.90
15355;DHT22;7777;52.254;9.618;2024-03-29T05:21:42;8.90;99.90
15355;DHT22;7777;52.254;9.618;2024-03-29T05:24:08;8.90;99.90
15355;DHT22;7777;52.254;9.618;2024-03-29T05:26:34;8.90;99.90
15355;DHT22;7777;52.254;9.618;2024-03-29T05:29:01;8.90;99.90
15355;DHT22;7777;52.254;9.618;2024-03-29T05:31:29;8.90;99.90
15355;DHT22;7777;52.254;9.618;2024-03-29T05:33:55;9.00;99.90
15355;DHT22;7777;52.254;9.618;2024-03-29T05:36:20;9.00;99.90
15355;DHT22;7777;52.254;9.618;2024-03-29T05:38:46;9.00;99.90
15355;DHT22;7777;52.254;9.618;2024-03-29T05:41:12;9.00;99.90
15355;DHT22;7777;52.254;9.618;2024-03-29T05:43:40;9.00;99.90
15355;DHT22;7777;52.254;9.618;2024-03-29T05:46:06;9.10;99.90
15355;DHT22;7777;52.254;9.618;2024-03-29T05:48:32;9.10;99.90
15355;DHT22;7777;52.254;9.618;2024-03-29T05:50:58;9.10;99.90
15355;DHT22;7777;52.254;9.618;2024-03-29T05:53:25;9.10;99.90
15355;DHT22;7777;52.254;9.618;2024-03-29T05:55:51;9.10;99.90
15355;DHT22;7777;52.254;9.618;2024-03-29T05:58:17;9.10;99.90
15355;DHT22;7777;52.254;9.618;2024-03-29T06:00:44;9.10;99.90
15355;DHT22;7777;52.254;9.618;2024-03-29T06:03:10;9.10;99.90
15355;DHT22;7777;52.254;9.618;2024-03-29T06:05:36;9.10;99.90
15355;DHT22;7777;52.254;9.618;2024-03-29T06:08:01;9.10;99.90
15355;DHT22;7777;52.254;9.618;2024-03-29T06:10:27;9.10;99.90
15355;DHT22;7777;52.254;9.618;2024-03-29T06:12:53;9.00;99.90
15355;DHT22;7777;52.254;9.618;2024-03-29T06:15:19;9.10;99.90
15355;DHT22;7777;52.254;9.618;2024-03-29T06:18:03;9.00;99.90
15355;DHT22;7777;52.254;9.618;2024-03-29T06:20:29;9.00;99.90
15355;DHT22;7777;52.254;9.618;2024-03-29T06:22:55;9.00;99.90
15355;DHT22;7777;52.254;9.618;2024-03-29T06:25:22;9.00;99.90
15355;DHT22;7777;52.254;9.618;2024-03-29T06:27:47;9.00;99.90
15355;DHT22;7777;52.254;9.618;2024-03-29T06:30:14;9.00;99.90
15355;DHT22;7777;52.254;9.618;2024-03-29T06:32:44;9.00;99.90
15355;DHT22;7777;52.254;9.618;2024-03-29T06:35:11;8.90;99.90
15355;DHT22;7777;52.254;9.618;2024-03-29T06:37:37;8.90;99.90
15355;DHT22;7777;52.254;9.618;2024-03-29T06:40:03;8.90;99.90
15355;DHT22;7777;52.254;9.618;2024-03-29T06:42:31;8.90;99.90
15355;DHT22;7777;52.254;9.618;2024-03-29T06:44:57;8.80;99.90
15355;DHT22;7777;52.254;9.618;2024-03-29T06:47:24;8.80;99.90
15355;DHT22;7777;52.254;9.618;2024-03-29T06:49:50;8.80;99.90
15355;DHT22;7777;52.254;9.618;2024-03-29T06:52:16;8.70;99.90
15355;DHT22;7777;52.254;9.618;2024-03-29T06:54:42;8.70;99.90
15355;DHT22;7777;52.254;9.618;2024-03-29T06:57:08;8.70;99.90
15355;DHT22;7777;52.254;9.618;2024-03-29T06:59:35;8.60;99.90
15355;DHT22;7777;52.254;9.618;2024-03-29T07:02:01;8.60;99.90
15355;DHT22;7777;52.254;9.618;2024-03-29T07:04:27;8.60;99.90
15355;DHT22;7777;52.254;9.618;2024-03-29T07:06:53;8.50;99.90
15355;DHT22;7777;52.254;9.618;2024-03-29T07:09:21;8.50;99.90
15355;DHT22;7777;52.254;9.618;2024-03-29T07:11:48;8.40;99.90
15355;DHT22;7777;52.254;9.618;2024-03-29T07:14:15;8.40;99.90
15355;DHT22;7777;52.254;9.618;2024-03-29T07:16:42;8.30;99.90
15355;DHT22;7777;52.254;9.618;2024-03-29T07:19:08;8.30;99.90
15355;DHT22;7777;52.254;9.618;2024-03-29T07:21:34;8.30;99.90
15355;DHT22;7777;52.254;9.618;2024-03-29T07:24:01;8.30;99.90
15355;DHT22;7777;52.254;9.618;2024-03-29T07:26:26;8.30;99.90
15355;DHT22;7777;52.254;9.618;2024-03-29T07:28:52;8.30;99.90
15355;DHT22;7777;52.254;9.618;2024-03-29T07:31:18;8.30;99.90
15355;DHT22;7777;52.254;9.618;2024-03-29T07:33:43;8.30;99.90
15355;DHT22;7777;52.254;9.618;2024-03-29T07:36:09;8.30;99.90
15355;DHT22;7777;52.254;9.618;2024-03-29T07:38:37;8.30;99.90
15355;DHT22;7777;52.254;9.618;2024-03-29T07:41:03;8.30;99.90
15355;DHT22;7777;52.254;9.618;2024-03-29T07:43:38;8.30;99.90
15355;DHT22;7777;52.254;9.618;2024-03-29T07:46:17;8.30;99.90
15355;DHT22;7777;52.254;9.618;2024-03-29T07:48:43;8.30;99.90
15355;DHT22;7777;52.254;9.618;2024-03-29T07:51:09;8.30;99.90
15355;DHT22;7777;52.254;9.618;2024-03-29T07:53:34;8.30;99.90
15355;DHT22;7777;52.254;9.618;2024-03-29T07:56:00;8.30;99.90
15355;DHT22;7777;52.254;9.618;2024-03-29T07:58:26;8.30;99.90
15355;DHT22;7777;52.254;9.618;2024-03-29T08:00:52;8.40;99.90
15355;DHT22;7777;52.254;9.618;2024-03-29T08:03:19;8.40;99.90
15355;DHT22;7777;52.254;9.618;2024-03-29T08:06:00;8.40;99.90
15355;DHT22;7777;52.254;9.618;2024-03-29T08:08:33;8.40;99.90
15355;DHT22;7777;52.254;9.618;2024-03-29T08:10:59;8.50;99.90
15355;DHT22;7777;52.254;9.618;2024-03-29T08:13:25;8.50;99.90
15355;DHT22;7777;52.254;9.618;2024-03-29T08:15:58;8.50;99.90
15355;DHT22;7777;52.254;9.618;2024-03-29T08:18:26;8.50;99.90
15355;DHT22;7777;52.254;9.618;2024-03-29T08:20:53;8.60;99.90
15355;DHT22;7777;52.254;9.618;2024-03-29T08:23:22;8.60;99.90
15355;DHT22;7777;52.254;9.618;2024-03-29T08:25:47;8.70;99.90
15355;DHT22;7777;52.254;9.618;2024-03-29T08:28:14;8.70;99.90
15355;DHT22;7777;52.254;9.618;2024-03-29T08:30:40;8.80;99.90
15355;DHT22;7777;52.254;9.618;2024-03-29T08:33:06;8.80;99.90
15355;DHT22;7777;52.254;9.618;2024-03-29T08:35:33;8.90;99.90
15355;DHT22;7777;52.254;9.618;2024-03-29T08:38:00;8.90;99.90
15355;DHT22;7777;52.254;9.618;2024-03-29T08:40:27;9.00;99.90
15355;DHT22;7777;52.254;9.618;2024-03-29T08:42:55;9.10;99.90
15355;DHT22;7777;52.254;9.618;2024-03-29T08:45:21;9.10;99.90
15355;DHT22;7777;52.254;9.618;2024-03-29T08:47:48;9.20;99.90
15355;DHT22;7777;52.254;9.618;2024-03-29T08:50:14;9.30;99.90
15355;DHT22;7777;52.254;9.618;2024-03-29T08:52:40;9.40;99.90
15355;DHT22;7777;52.254;9.618;2024-03-29T08:55:08;9.50;99.90
15355;DHT22;7777;52.254;9.618;2024-03-29T08:57:34;9.50;99.90
15355;DHT22;7777;52.254;9.618;2024-03-29T09:00:00;9.60;99.90
15355;DHT22;7777;52.254;9.618;2024-03-29T09:02:26;9.60;99.90
15355;DHT22;7777;52.254;9.618;2024-03-29T09:04:52;9.70;99.90
15355;DHT22;7777;52.254;9.618;2024-03-29T09:07:17;9.80;99.90
15355;DHT22;7777;52.254;9.618;2024-03-29T09:09:43;9.80;99.90
15355;DHT22;7777;52.254;9.618;2024-03-29T09:12:09;9.80;99.90
15355;DHT22;7777;52.254;9.618;2024-03-29T09:14:35;9.90;99.90
15355;DHT22;7777;52.254;9.618;2024-03-29T09:17:01;9.90;99.90
15355;DHT22;7777;52.254;9.618;2024-03-29T09:19:28;10.00;99.90
15355;DHT22;7777;52.254;9.618;2024-03-29T09:21:55;10.00;99.90
15355;DHT22;7777;52.254;9.618;2024-03-29T09:24:21;10.10;99.90
15355;DHT22;7777;52.254;9.618;2024-03-29T09:26:49;10.10;99.90
15355;DHT22;7777;52.254;9.618;2024-03-29T09:29:14;10.20;99.90
15355;DHT22;7777;52.254;9.618;2024-03-29T09:31:42;10.20;99.90
15355;DHT22;7777;52.254;9.618;2024-03-29T09:34:07;10.30;99.90
15355;DHT22;7777;52.254;9.618;2024-03-29T09:36:34;10.30;99.90
15355;DHT22;7777;52.254;9.618;2024-03-29T09:39:00;10.30;99.90
15355;DHT22;7777;52.254;9.618;2024-03-29T09:41:26;10.40;99.90
15355;DHT22;7777;52.254;9.618;2024-03-29T09:43:53;10.50;99.90
15355;DHT22;7777;52.254;9.618;2024-03-29T09:46:24;10.50;99.90
15355;DHT22;7777;52.254;9.618;2024-03-29T09:48:51;10.60;99.90
15355;DHT22;7777;52.254;9.618;2024-03-29T09:51:19;10.70;99.90
15355;DHT22;7777;52.254;9.618;2024-03-29T09:53:47;10.80;99.90
15355;DHT22;7777;52.254;9.618;2024-03-29T09:56:14;10.80;99.90
15355;DHT22;7777;52.254;9.618;2024-03-29T09:58:39;10.90;99.90
15355;DHT22;7777;52.254;9.618;2024-03-29T10:01:06;11.00;99.90
15355;DHT22;7777;52.254;9.618;2024-03-29T10:03:39;11.00;99.90
15355;DHT22;7777;52.254;9.618;2024-03-29T10:06:06;11.10;99.90
15355;DHT22;7777;52.254;9.618;2024-03-29T10:08:37;11.10;99.90
15355;DHT22;7777;52.254;9.618;2024-03-29T10:11:03;11.20;99.90
15355;DHT22;7777;52.254;9.618;2024-03-29T10:13:29;11.20;99.90
15355;DHT22;7777;52.254;9.618;2024-03-29T10:15:55;11.30;99.90
15355;DHT22;7777;52.254;9.618;2024-03-29T10:18:26;11.30;99.90
15355;DHT22;7777;52.254;9.618;2024-03-29T10:21:06;11.40;99.90
15355;DHT22;7777;52.254;9.618;2024-03-29T10:23:33;11.50;99.90
15355;DHT22;7777;52.254;9.618;2024-03-29T10:26:04;11.60;99.90
15355;DHT22;7777;52.254;9.618;2024-03-29T10:28:32;11.70;99.90
15355;DHT22;7777;52.254;9.618;2024-03-29T10:31:02;11.70;99.90
15355;DHT22;7777;52.254;9.618;2024-03-29T10:33:31;11.90;99.90
15355;DHT22;7777;52.254;9.618;2024-03-29T10:36:03;11.90;99.90
15355;DHT22;7777;52.254;9.618;2024-03-29T10:38:31;12.00;99.90
15355;DHT22;7777;52.254;9.618;2024-03-29T10:40:57;12.10;99.90
15355;DHT22;7777;52.254;9.618;2024-03-29T10:43:24;12.10;99.90
15355;DHT22;7777;52.254;9.618;2024-03-29T10:45:51;12.20;99.90
15355;DHT22;7777;52.254;9.618;2024-03-29T10:48:21;12.20;99.90
15355;DHT22;7777;52.254;9.618;2024-03-29T10:50:48;12.30;99.90
15355;DHT22;7777;52.254;9.618;2024-03-29T10:53:16;12.30;99.90
15355;DHT22;7777;52.254;9.618;2024-03-29T10:55:43;12.40;99.90
15355;DHT22;7777;52.254;9.618;2024-03-29T10:58:12;12.60;99.90
15355;DHT22;7777;52.254;9.618;2024-03-29T11:00:46;12.70;99.90
15355;DHT22;7777;52.254;9.618;2024-03-29T11:03:20;12.80;99.90
15355;DHT22;7777;52.254;9.618;2024-03-29T11:05:55;12.90;99.90
15355;DHT22;7777;52.254;9.618;2024-03-29T11:08:26;13.00;99.90
15355;DHT22;7777;52.254;9.618;2024-03-29T11:10:58;13.10;99.90
15355;DHT22;7777;52.254;9.618;2024-03-29T11:16:12;13.20;99.90
15355;DHT22;7777;52.254;9.618;2024-03-29T11:18:44;13.20;99.90
15355;DHT22;7777;52.254;9.618;2024-03-29T11:21:11;13.30;99.90
15355;DHT22;7777;52.254;9.618;2024-03-29T11:23:37;13.30;99.90
15355;DHT22;7777;52.254;9.618;2024-03-29T11:26:04;13.30;99.90
15355;DHT22;7777;52.254;9.618;2024-03-29T11:28:33;13.40;99.90
15355;DHT22;7777;52.254;9.618;2024-03-29T11:31:06;13.40;99.90
15355;DHT22;7777;52.254;9.618;2024-03-29T11:36:16;13.40;99.90
15355;DHT22;7777;52.254;9.618;2024-03-29T11:38:57;13.50;99.90
15355;DHT22;7777;52.254;9.618;2024-03-29T11:41:24;13.50;99.90
15355;DHT22;7777;52.254;9.618;2024-03-29T11:43:56;13.60;99.90
15355;DHT22;7777;52.254;9.618;2024-03-29T11:46:23;13.60;99.90
15355;DHT22;7777;52.254;9.618;2024-03-29T11:48:49;13.60;99.90
15355;DHT22;7777;52.254;9.618;2024-03-29T11:51:18;13.70;99.90
15355;DHT22;7777;52.254;9.618;2024-03-29T11:53:47;13.70;99.90
15355;DHT22;7777;52.254;9.618;2024-03-29T11:56:14;13.70;99.90
15355;DHT22;7777;52.254;9.618;2024-03-29T11:58:40;13.70;99.90
15355;DHT22;7777;52.254;9.618;2024-03-29T12:01:06;13.80;99.90
15355;DHT22;7777;52.254;9.618;2024-03-29T12:03:40;13.80;99.90
15355;DHT22;7777;52.254;9.618;2024-03-29T12:06:07;13.80;99.90
15355;DHT22;7777;52.254;9.618;2024-03-29T12:08:37;13.80;99.90
15355;DHT22;7777;52.254;9.618;2024-03-29T12:11:04;13.80;99.90
15355;DHT22;7777;52.254;9.618;2024-03-29T12:13:30;13.80;99.90
15355;DHT22;7777;52.254;9.618;2024-03-29T12:15:57;13.80;99.90
15355;DHT22;7777;52.254;9.618;2024-03-29T12:18:25;13.80;99.90
15355;DHT22;7777;52.254;9.618;2024-03-29T12:20:52;13.80;99.90
15355;DHT22;7777;52.254;9.618;2024-03-29T12:23:19;13.80;99.90
15355;DHT22;7777;52.254;9.618;2024-03-29T12:25:47;13.80;99.90
15355;DHT22;7777;52.254;9.618;2024-03-29T12:28:14;13.80;99.90
15355;DHT22;7777;52.254;9.618;2024-03-29T12:30:45;13.80;99.90
15355;DHT22;7777;52.254;9.618;2024-03-29T12:33:14;13.80;99.90
15355;DHT22;7777;52.254;9.618;2024-03-29T12:35:48;13.80;99.90
15355;DHT22;7777;52.254;9.618;2024-03-29T12:38:16;13.90;99.90
15355;DHT22;7777;52.254;9.618;2024-03-29T12:40:44;13.90;99.90
15355;DHT22;7777;52.254;9.618;2024-03-29T12:43:13;13.90;99.90
15355;DHT22;7777;52.254;9.618;2024-03-29T12:45:40;13.90;99.90
15355;DHT22;7777;52.254;9.618;2024-03-29T12:48:14;14.00;99.90
15355;DHT22;7777;52.254;9.618;2024-03-29T12:50:48;14.00;99.90
15355;DHT22;7777;52.254;9.618;2024-03-29T12:53:16;14.00;99.90
15355;DHT22;7777;52.254;9.618;2024-03-29T12:55:46;14.10;99.90
15355;DHT22;7777;52.254;9.618;2024-03-29T12:58:18;14.10;99.90
15355;DHT22;7777;52.254;9.618;2024-03-29T13:00:47;14.10;99.90
15355;DHT22;7777;52.254;9.618;2024-03-29T13:03:13;14.10;99.90
15355;DHT22;7777;52.254;9.618;2024-03-29T13:05:40;14.10;99.90
15355;DHT22;7777;52.254;9.618;2024-03-29T13:08:08;14.10;99.90
15355;DHT22;7777;52.254;9.618;2024-03-29T13:10:38;14.10;99.90
15355;DHT22;7777;52.254;9.618;2024-03-29T13:13:08;14.10;99.90
15355;DHT22;7777;52.254;9.618;2024-03-29T13:15:38;14.10;99.90
15355;DHT22;7777;52.254;9.618;2024-03-29T13:18:05;14.10;99.90
15355;DHT22;7777;52.254;9.618;2024-03-29T13:20:32;14.10;99.90
15355;DHT22;7777;52.254;9.618;2024-03-29T13:23:02;14.10;99.90
15355;DHT22;7777;52.254;9.618;2024-03-29T13:25:28;14.10;99.90
15355;DHT22;7777;52.254;9.618;2024-03-29T13:27:54;14.10;99.90
15355;DHT22;7777;52.254;9.618;2024-03-29T13:30:24;14.10;99.90
15355;DHT22;7777;52.254;9.618;2024-03-29T13:32:51;14.10;99.90
15355;DHT22;7777;52.254;9.618;2024-03-29T13:35:18;14.10;99.90
15355;DHT22;7777;52.254;9.618;2024-03-29T13:37:47;14.10;99.90
15355;DHT22;7777;52.254;9.618;2024-03-29T13:40:20;14.10;99.90
15355;DHT22;7777;52.254;9.618;2024-03-29T13:42:47;14.10;99.90
15355;DHT22;7777;52.254;9.618;2024-03-29T13:45:14;14.20;99.90
15355;DHT22;7777;52.254;9.618;2024-03-29T13:47:41;14.20;99.90
15355;DHT22;7777;52.254;9.618;2024-03-29T13:50:10;14.20;99.90
15355;DHT22;7777;52.254;9.618;2024-03-29T13:52:37;14.20;99.90
15355;DHT22;7777;52.254;9.618;2024-03-29T13:55:03;14.20;99.90
15355;DHT22;7777;52.254;9.618;2024-03-29T13:57:30;14.30;99.90
15355;DHT22;7777;52.254;9.618;2024-03-29T13:59:59;14.30;99.90
15355;DHT22;7777;52.254;9.618;2024-03-29T14:02:26;14.30;99.90
15355;DHT22;7777;52.254;9.618;2024-03-29T14:04:53;14.30;99.90
15355;DHT22;7777;52.254;9.618;2024-03-29T14:07:18;14.40;99.90
15355;DHT22;7777;52.254;9.618;2024-03-29T14:09:45;14.40;99.90
15355;DHT22;7777;52.254;9.618;2024-03-29T14:12:11;14.40;99.90
15355;DHT22;7777;52.254;9.618;2024-03-29T14:14:38;14.40;99.90
15355;DHT22;7777;52.254;9.618;2024-03-29T14:17:04;14.40;99.90
15355;DHT22;7777;52.254;9.618;2024-03-29T14:19:32;14.40;99.90
15355;DHT22;7777;52.254;9.618;2024-03-29T14:21:59;14.50;99.90
15355;DHT22;7777;52.254;9.618;2024-03-29T14:24:26;14.50;99.90
15355;DHT22;7777;52.254;9.618;2024-03-29T14:26:53;14.50;99.90
15355;DHT22;7777;52.254;9.618;2024-03-29T14:29:21;14.50;99.90
15355;DHT22;7777;52.254;9.618;2024-03-29T14:31:50;14.50;99.90
15355;DHT22;7777;52.254;9.618;2024-03-29T14:34:16;14.60;99.90
15355;DHT22;7777;52.254;9.618;2024-03-29T14:36:43;14.60;99.90
15355;DHT22;7777;52.254;9.618;2024-03-29T14:39:10;14.70;99.90
15355;DHT22;7777;52.254;9.618;2024-03-29T14:41:40;14.70;99.90
15355;DHT22;7777;52.254;9.618;2024-03-29T14:44:09;14.70;99.90
15355;DHT22;7777;52.254;9.618;2024-03-29T14:46:35;14.80;99.90
15355;DHT22;7777;52.254;9.618;2024-03-29T14:49:04;14.80;99.90
15355;DHT22;7777;52.254;9.618;2024-03-29T14:51:36;14.90;99.90
15355;DHT22;7777;52.254;9.618;2024-03-29T14:54:02;14.90;99.90
15355;DHT22;7777;52.254;9.618;2024-03-29T14:56:32;14.90;99.90
15355;DHT22;7777;52.254;9.618;2024-03-29T14:59:06;14.90;99.90
15355;DHT22;7777;52.254;9.618;2024-03-29T15:01:35;15.00;99.90
15355;DHT22;7777;52.254;9.618;2024-03-29T15:04:02;15.00;99.90
15355;DHT22;7777;52.254;9.618;2024-03-29T15:06:27;15.00;99.90
15355;DHT22;7777;52.254;9.618;2024-03-29T15:08:55;15.00;99.90
15355;DHT22;7777;52.254;9.618;2024-03-29T15:11:26;15.00;99.90
15355;DHT22;7777;52.254;9.618;2024-03-29T15:13:53;15.00;99.90
15355;DHT22;7777;52.254;9.618;2024-03-29T15:16:19;15.00;99.90
15355;DHT22;7777;52.254;9.618;2024-03-29T15:18:45;15.00;99.90
15355;DHT22;7777;52.254;9.618;2024-03-29T15:21:11;15.00;99.90
15355;DHT22;7777;52.254;9.618;2024-03-29T15:23:37;15.00;99.90
15355;DHT22;7777;52.254;9.618;2024-03-29T15:26:03;15.00;99.90
15355;DHT22;7777;52.254;9.618;2024-03-29T15:28:29;15.00;99.90
15355;DHT22;7777;52.254;9.618;2024-03-29T15:31:15;15.00;99.90
15355;DHT22;7777;52.254;9.618;2024-03-29T15:33:45;15.00;99.90
15355;DHT22;7777;52.254;9.618;2024-03-29T15:36:11;15.10;99.90
15355;DHT22;7777;52.254;9.618;2024-03-29T15:38:38;15.10;99.90
15355;DHT22;7777;52.254;9.618;2024-03-29T15:41:05;15.10;99.90
15355;DHT22;7777;52.254;9.618;2024-03-29T15:43:32;15.10;99.90
15355;DHT22;7777;52.254;9.618;2024-03-29T15:45:58;15.10;99.90
15355;DHT22;7777;52.254;9.618;2024-03-29T15:48:24;15.10;99.90
15355;DHT22;7777;52.254;9.618;2024-03-29T15:50:53;15.10;99.90
15355;DHT22;7777;52.254;9.618;2024-03-29T15:53:19;15.10;99.90
15355;DHT22;7777;52.254;9.618;2024-03-29T15:55:46;15.10;99.90
15355;DHT22;7777;52.254;9.618;2024-03-29T15:58:12;15.10;99.90
15355;DHT22;7777;52.254;9.618;2024-03-29T16:00:38;15.10;99.90